createdAt,value
2022-09-23T00:01:31.000Z,7.02
2022-09-23T00:04:00.197Z,6.95
2022-09-23T00:06:28.544Z,6.94
2022-09-23T00:08:56.571Z,6.74
2022-09-23T00:11:27.563Z,6.67
2022-09-23T00:13:58.411Z,6.73
2022-09-23T00:16:33.424Z,6.69
2022-09-23T00:19:02.657Z,6.69
2022-09-23T00:21:31.197Z,6.60
2022-09-23T00:23:59.419Z,6.45
2022-09-23T00:26:28.242Z,6.55
2022-09-23T00:28:56.791Z,6.50
2022-09-23T00:31:27.331Z,6.52
2022-09-23T00:34:02.465Z,6.53
2022-09-23T00:36:32.330Z,6.61
2022-09-23T00:39:00.417Z,6.58
2022-09-23T00:41:28.947Z,6.67
2022-09-23T00:43:59.904Z,6.92
2022-09-23T00:46:43.766Z,7.05
2022-09-23T00:49:22.235Z,7.01
2022-09-23T00:51:56.383Z,7.02
2022-09-23T00:54:27.399Z,7.00
2022-09-23T00:56:57.765Z,6.95
2022-09-23T00:59:29.057Z,6.84
2022-09-23T01:01:59.104Z,6.77
2022-09-23T01:04:29.845Z,6.69
2022-09-23T01:06:57.988Z,6.75
2022-09-23T01:09:26.485Z,6.67
2022-09-23T01:12:02.534Z,6.74
2022-09-23T01:14:55.090Z,6.73
2022-09-23T01:17:36.547Z,6.60
2022-09-23T01:20:32.184Z,6.52
2022-09-23T01:23:22.145Z,6.35
2022-09-23T01:26:11.776Z,6.40
2022-09-23T01:29:02.409Z,6.19
2022-09-23T01:31:55.209Z,6.27
2022-09-23T01:34:37.406Z,6.25
2022-09-23T01:37:13.512Z,6.43
2022-09-23T01:40:17.425Z,6.33
2022-09-23T01:43:10.464Z,6.27
2022-09-23T01:45:42.078Z,6.33
2022-09-23T01:48:42.112Z,6.15
2022-09-23T01:51:26.900Z,5.89
2022-09-23T01:54:15.910Z,6.12
2022-09-23T01:56:52.897Z,6.12
2022-09-23T01:59:38.445Z,6.22
2022-09-23T02:02:15.307Z,6.20
2022-09-23T02:04:54.378Z,6.18
2022-09-23T02:07:33.848Z,6.07
2022-09-23T02:10:18.910Z,6.23
2022-09-23T02:12:52.167Z,6.16
2022-09-23T02:15:27.867Z,6.11
2022-09-23T02:18:01.994Z,6.11
2022-09-23T02:20:34.819Z,6.19
2022-09-23T02:23:17.210Z,6.20
2022-09-23T02:25:56.383Z,6.25
2022-09-23T02:28:45.150Z,6.33
2022-09-23T02:31:40.785Z,6.29
2022-09-23T02:34:41.208Z,6.40
2022-09-23T02:37:37.385Z,6.44
2022-09-23T02:40:31.067Z,6.49
2022-09-23T02:43:35.506Z,6.38
2022-09-23T02:46:06.009Z,6.23
2022-09-23T02:48:41.853Z,6.25
2022-09-23T02:51:10.476Z,5.99
2022-09-23T02:53:39.649Z,5.97
2022-09-23T02:56:16.807Z,6.03
2022-09-23T02:58:47.032Z,6.08
2022-09-23T03:01:47.794Z,6.18
2022-09-23T03:04:47.440Z,5.96
2022-09-23T03:07:24.347Z,5.94
2022-09-23T03:09:55.417Z,5.88
2022-09-23T03:13:02.092Z,5.87
2022-09-23T03:15:39.112Z,6.04
2022-09-23T03:18:11.728Z,6.11
2022-09-23T03:20:50.564Z,6.08
2022-09-23T03:23:25.458Z,5.93
2022-09-23T03:25:56.880Z,6.02
2022-09-23T03:28:27.224Z,6.14
2022-09-23T03:30:59.937Z,6.12
2022-09-23T03:33:28.947Z,6.22
2022-09-23T03:36:22.767Z,5.98
2022-09-23T03:38:55.040Z,6.17
2022-09-23T03:41:38.874Z,5.99
2022-09-23T03:44:09.219Z,6.05
2022-09-23T03:46:37.918Z,5.95
2022-09-23T03:49:16.481Z,6.01
2022-09-23T03:51:45.285Z,6.08
2022-09-23T03:54:13.304Z,6.00
2022-09-23T03:56:41.975Z,5.95
2022-09-23T03:59:10.268Z,5.98
2022-09-23T04:01:38.334Z,6.09
2022-09-23T04:04:06.867Z,6.14
2022-09-23T04:06:35.666Z,6.18
2022-09-23T04:09:03.936Z,6.24
2022-09-23T04:11:32.480Z,6.26
2022-09-23T04:14:00.713Z,6.33
2022-09-23T04:16:29.186Z,6.25
2022-09-23T04:18:57.722Z,6.15
2022-09-23T04:21:26.887Z,6.10
2022-09-23T04:23:54.945Z,6.11
2022-09-23T04:26:23.551Z,6.05
2022-09-23T04:28:51.715Z,6.08
2022-09-23T04:31:19.825Z,6.03
2022-09-23T04:33:48.355Z,5.96
2022-09-23T04:36:17.016Z,5.92
2022-09-23T04:38:49.209Z,5.79
2022-09-23T04:41:18.722Z,5.83
2022-09-23T04:43:47.038Z,5.88
2022-09-23T04:46:16.389Z,5.74
2022-09-23T04:48:45.288Z,5.51
2022-09-23T04:51:16.370Z,5.68
2022-09-23T04:53:46.994Z,5.55
2022-09-23T04:56:20.468Z,5.51
2022-09-23T04:58:49.781Z,5.44
2022-09-23T05:01:26.857Z,5.59
2022-09-23T05:04:14.991Z,5.70
2022-09-23T05:06:45.153Z,5.74
2022-09-23T05:09:17.792Z,5.66
2022-09-23T05:11:46.282Z,5.66
2022-09-23T05:14:14.761Z,5.71
2022-09-23T05:16:43.016Z,5.70
2022-09-23T05:19:13.648Z,5.82
2022-09-23T05:21:42.142Z,5.93
2022-09-23T05:24:12.365Z,6.04
2022-09-23T05:26:40.883Z,6.09
2022-09-23T05:29:09.325Z,6.14
2022-09-23T05:31:37.408Z,6.14
2022-09-23T05:34:06.100Z,6.28
2022-09-23T05:36:38.645Z,6.52
2022-09-23T05:39:08.605Z,6.60
2022-09-23T05:41:37.248Z,6.76
2022-09-23T05:44:05.636Z,6.79
2022-09-23T05:46:34.360Z,6.84
2022-09-23T05:49:04.320Z,6.94
2022-09-23T05:51:34.751Z,7.04
2022-09-23T05:54:04.480Z,6.98
2022-09-23T05:56:33.810Z,6.99
2022-09-23T05:59:02.705Z,7.12
2022-09-23T06:01:34.328Z,7.10
2022-09-23T06:04:05.571Z,7.16
2022-09-23T06:06:39.602Z,7.15
2022-09-23T06:09:11.757Z,7.16
2022-09-23T06:11:40.309Z,7.30
2022-09-23T06:14:12.158Z,7.30
2022-09-23T06:16:40.328Z,7.21
2022-09-23T06:19:09.937Z,7.35
2022-09-23T06:21:40.535Z,7.48
2022-09-23T06:24:13.298Z,7.65
2022-09-23T06:26:44.169Z,7.76
2022-09-23T06:29:12.768Z,7.87
2022-09-23T06:31:42.120Z,8.02
2022-09-23T06:34:16.492Z,8.00
2022-09-23T06:36:46.597Z,7.91
2022-09-23T06:39:15.918Z,8.13
2022-09-23T06:41:45.468Z,8.24
2022-09-23T06:44:14.452Z,8.33
2022-09-23T06:46:44.129Z,8.45
2022-09-23T06:49:13.388Z,8.70
2022-09-23T06:51:41.899Z,8.73
2022-09-23T06:54:11.116Z,8.92
2022-09-23T06:56:40.280Z,8.92
2022-09-23T06:59:11.387Z,8.96
2022-09-23T07:01:39.760Z,9.17
2022-09-23T07:04:10.683Z,9.30
2022-09-23T07:06:39.376Z,9.46
2022-09-23T07:09:09.098Z,9.66
2022-09-23T07:11:37.811Z,9.74
2022-09-23T07:14:06.079Z,9.84
2022-09-23T07:16:34.491Z,10.15
2022-09-23T07:19:02.658Z,10.55
2022-09-23T07:21:31.747Z,10.82
2022-09-23T07:24:00.169Z,11.20
2022-09-23T07:26:29.512Z,11.51
2022-09-23T07:29:04.945Z,11.87
2022-09-23T07:31:39.518Z,12.17
2022-09-23T07:34:11.652Z,12.62
2022-09-23T07:36:40.930Z,13.06
2022-09-23T07:39:11.472Z,13.13
2022-09-23T07:41:41.885Z,13.54
2022-09-23T07:44:11.845Z,13.84
2022-09-23T07:46:40.353Z,14.09
2022-09-23T07:49:08.831Z,14.26
2022-09-23T07:51:39.493Z,14.40
2022-09-23T07:54:12.384Z,14.32
2022-09-23T07:56:41.874Z,14.75
2022-09-23T07:59:17.276Z,15.30
2022-09-23T08:01:48.794Z,15.71
2022-09-23T08:04:18.765Z,15.41
2022-09-23T08:06:54.035Z,15.90
2022-09-23T08:09:25.456Z,15.96
2022-09-23T08:11:54.078Z,15.75
2022-09-23T08:14:22.659Z,16.63
2022-09-23T08:16:52.019Z,17.02
2022-09-23T08:19:20.497Z,17.29
2022-09-23T08:21:52.075Z,16.86
2022-09-23T08:24:23.877Z,17.34
2022-09-23T08:26:54.374Z,17.36
2022-09-23T08:29:24.835Z,17.63
2022-09-23T08:31:53.840Z,18.14
2022-09-23T08:34:23.579Z,18.81
2022-09-23T08:36:52.543Z,18.03
2022-09-23T08:39:21.004Z,18.75
2022-09-23T08:42:19.252Z,18.48
2022-09-23T08:45:04.935Z,17.69
2022-09-23T08:47:43.789Z,18.70
2022-09-23T08:50:15.083Z,19.68
2022-09-23T08:52:50.937Z,19.22
2022-09-23T08:55:21.676Z,18.50
2022-09-23T08:58:26.017Z,19.04
2022-09-23T09:01:23.409Z,18.43
2022-09-23T09:04:02.123Z,19.52
2022-09-23T09:06:52.527Z,19.03
2022-09-23T09:09:36.754Z,19.14
2022-09-23T09:12:11.755Z,19.69
2022-09-23T09:14:52.132Z,18.83
2022-09-23T09:17:35.289Z,19.47
2022-09-23T09:20:23.402Z,19.78
2022-09-23T09:23:15.582Z,19.88
2022-09-23T09:25:50.081Z,20.32
2022-09-23T09:28:27.962Z,20.37
2022-09-23T09:31:02.989Z,20.33
2022-09-23T09:33:44.717Z,20.52
2022-09-23T09:36:47.661Z,20.72
2022-09-23T09:39:16.509Z,20.42
2022-09-23T09:41:52.460Z,20.44
2022-09-23T09:44:39.188Z,21.00
2022-09-23T09:47:15.245Z,20.60
2022-09-23T09:49:59.076Z,19.80
2022-09-23T09:52:29.926Z,19.88
2022-09-23T09:55:13.442Z,19.28
2022-09-23T09:57:50.173Z,20.10
2022-09-23T10:00:35.637Z,19.63
2022-09-23T10:03:13.546Z,20.19
2022-09-23T10:05:45.089Z,19.71
2022-09-23T10:08:35.334Z,20.61
2022-09-23T10:11:13.006Z,20.90
2022-09-23T10:13:42.664Z,21.01
2022-09-23T10:16:10.948Z,21.28
2022-09-23T10:18:48.056Z,20.50
2022-09-23T10:21:23.116Z,20.98
2022-09-23T10:23:58.730Z,20.01
2022-09-23T10:26:41.278Z,19.90
2022-09-23T10:29:36.996Z,19.05
2022-09-23T10:32:30.315Z,18.50
2022-09-23T10:35:04.727Z,17.75
2022-09-23T10:37:37.628Z,17.84
2022-09-23T10:40:37.264Z,17.45
2022-09-23T10:43:58.477Z,17.71
2022-09-23T10:46:39.839Z,17.47
2022-09-23T10:49:27.670Z,17.45
2022-09-23T10:52:07.521Z,17.46
2022-09-23T10:55:02.385Z,17.34
2022-09-23T10:57:53.531Z,17.27
2022-09-23T11:00:47.011Z,16.97
2022-09-23T11:03:26.966Z,16.73
2022-09-23T11:06:38.890Z,16.81
2022-09-23T11:09:26.983Z,16.61
2022-09-23T11:12:02.043Z,16.53
2022-09-23T11:15:02.481Z,16.57
2022-09-23T11:18:02.929Z,16.48
2022-09-23T11:20:33.696Z,16.20
2022-09-23T11:23:20.291Z,16.27
2022-09-23T11:26:06.195Z,16.25
2022-09-23T11:28:40.636Z,16.40
2022-09-23T11:31:27.072Z,16.27
2022-09-23T11:34:35.173Z,16.21
2022-09-23T11:37:14.029Z,16.18
2022-09-23T11:39:52.530Z,16.09
2022-09-23T11:42:25.189Z,16.04
2022-09-23T11:44:58.388Z,16.17
2022-09-23T11:47:39.746Z,16.12
2022-09-23T11:50:33.375Z,16.08
2022-09-23T11:53:21.584Z,16.05
2022-09-23T11:56:01.226Z,15.90
2022-09-23T11:58:46.174Z,15.93
2022-09-23T12:01:45.576Z,16.05
2022-09-23T12:04:23.150Z,15.87
2022-09-23T12:07:02.963Z,15.84
2022-09-23T12:09:57.730Z,15.78
2022-09-23T12:12:39.517Z,15.71
2022-09-23T12:15:38.800Z,15.60
2022-09-23T12:18:13.063Z,15.61
2022-09-23T12:21:03.078Z,15.60
2022-09-23T12:23:37.307Z,15.55
2022-09-23T12:26:14.691Z,15.37
2022-09-23T12:28:45.530Z,15.39
2022-09-23T12:31:18.662Z,15.45
2022-09-23T12:33:52.424Z,15.43
2022-09-23T12:36:34.775Z,15.28
2022-09-23T12:39:08.196Z,15.34
2022-09-23T12:41:46.376Z,15.39
2022-09-23T12:44:26.663Z,15.28
2022-09-23T12:47:26.001Z,15.39
2022-09-23T12:49:55.266Z,15.39
2022-09-23T12:52:30.921Z,15.42
2022-09-23T12:55:24.464Z,15.45
2022-09-23T12:57:53.257Z,15.42
2022-09-23T13:00:27.437Z,15.53
2022-09-23T13:03:18.345Z,15.55
2022-09-23T13:06:16.982Z,15.54
2022-09-23T13:08:47.307Z,15.42
2022-09-23T13:11:31.663Z,15.54
2022-09-23T13:14:05.162Z,15.56
2022-09-23T13:16:43.842Z,15.70
2022-09-23T13:19:38.699Z,15.63
2022-09-23T13:22:12.039Z,15.63
2022-09-23T13:24:52.434Z,15.84
2022-09-23T13:27:33.774Z,16.07
2022-09-23T13:30:07.821Z,16.19
2022-09-23T13:32:41.078Z,16.26
2022-09-23T13:35:24.468Z,16.34
2022-09-23T13:37:53.703Z,16.48
2022-09-23T13:40:28.617Z,16.46
2022-09-23T13:43:00.859Z,16.47
2022-09-23T13:45:34.124Z,16.44
2022-09-23T13:48:15.525Z,16.33
2022-09-23T13:50:48.651Z,16.52
2022-09-23T13:53:29.630Z,16.37
2022-09-23T13:56:02.120Z,16.39
2022-09-23T13:58:32.604Z,16.33
2022-09-23T14:01:01.306Z,16.20
2022-09-23T14:03:37.303Z,16.23
2022-09-23T14:06:09.730Z,16.07
2022-09-23T14:08:47.529Z,16.17
2022-09-23T14:11:29.500Z,16.27
2022-09-23T14:14:01.004Z,16.34
2022-09-23T14:16:30.073Z,16.35
2022-09-23T14:19:00.702Z,16.35
2022-09-23T14:21:34.857Z,16.25
2022-09-23T14:24:22.881Z,16.50
2022-09-23T14:26:57.292Z,16.42
2022-09-23T14:29:26.979Z,16.57
2022-09-23T14:32:04.480Z,16.66
2022-09-23T14:34:41.788Z,16.67
2022-09-23T14:37:37.755Z,16.76
2022-09-23T14:40:13.353Z,16.73
2022-09-23T14:42:44.839Z,16.67
2022-09-23T14:45:18.540Z,16.70
2022-09-23T14:47:58.379Z,16.79
2022-09-23T14:50:47.198Z,16.76
2022-09-23T14:53:24.177Z,16.62
2022-09-23T14:55:58.841Z,16.58
2022-09-23T14:58:30.879Z,16.60
2022-09-23T15:01:01.526Z,16.61
2022-09-23T15:03:30.038Z,16.76
2022-09-23T15:06:09.292Z,16.76
2022-09-23T15:08:37.397Z,16.68
2022-09-23T15:11:08.356Z,16.64
2022-09-23T15:13:42.024Z,16.63
2022-09-23T15:16:14.416Z,16.62
2022-09-23T15:18:46.374Z,16.54
2022-09-23T15:21:19.453Z,16.46
2022-09-23T15:23:56.127Z,16.41
2022-09-23T15:26:40.658Z,16.37
2022-09-23T15:29:09.928Z,16.29
2022-09-23T15:31:39.057Z,16.23
2022-09-23T15:34:07.360Z,16.09
2022-09-23T15:36:37.033Z,16.07
2022-09-23T15:39:08.675Z,15.89
2022-09-23T15:41:36.801Z,15.86
2022-09-23T15:44:17.217Z,15.84
2022-09-23T15:46:49.024Z,15.62
2022-09-23T15:49:33.099Z,15.56
2022-09-23T15:52:02.696Z,15.50
2022-09-23T15:54:32.500Z,15.39
2022-09-23T15:57:01.396Z,15.32
2022-09-23T15:59:31.586Z,15.20
2022-09-23T16:02:08.697Z,15.15
2022-09-23T16:04:38.767Z,15.06
2022-09-23T16:07:16.635Z,15.06
2022-09-23T16:09:45.129Z,15.01
2022-09-23T16:12:13.507Z,14.82
2022-09-23T16:14:41.659Z,14.81
2022-09-23T16:17:13.583Z,14.70
2022-09-23T16:19:41.820Z,14.67
2022-09-23T16:22:14.564Z,14.69
2022-09-23T16:24:43.049Z,14.64
2022-09-23T16:27:17.560Z,14.63
2022-09-23T16:29:45.818Z,14.63
2022-09-23T16:32:16.033Z,14.52
2022-09-23T16:34:47.131Z,14.51
2022-09-23T16:37:16.629Z,14.36
2022-09-23T16:39:44.723Z,14.36
2022-09-23T16:42:13.575Z,14.31
2022-09-23T16:44:42.125Z,14.23
2022-09-23T16:47:10.101Z,14.25
2022-09-23T16:49:38.641Z,14.18
2022-09-23T16:52:07.575Z,14.12
2022-09-23T16:54:37.497Z,14.01
2022-09-23T16:57:06.238Z,14.05
2022-09-23T16:59:54.507Z,13.92
2022-09-23T17:02:41.668Z,13.84
2022-09-23T17:05:10.904Z,13.81
2022-09-23T17:07:38.984Z,13.82
2022-09-23T17:10:07.577Z,13.71
2022-09-23T17:12:36.659Z,13.62
2022-09-23T17:15:07.437Z,13.49
2022-09-23T17:17:37.886Z,13.40
2022-09-23T17:20:06.718Z,13.33
2022-09-23T17:22:34.808Z,13.01
2022-09-23T17:25:03.968Z,12.76
2022-09-23T17:27:33.432Z,12.67
2022-09-23T17:30:01.572Z,12.38
2022-09-23T17:32:31.498Z,12.21
2022-09-23T17:35:04.505Z,12.06
2022-09-23T17:37:33.425Z,11.87
2022-09-23T17:40:02.499Z,11.84
2022-09-23T17:42:31.114Z,11.78
2022-09-23T17:45:01.163Z,11.83
2022-09-23T17:47:29.247Z,11.82
2022-09-23T17:49:58.831Z,11.70
2022-09-23T17:52:27.186Z,11.51
2022-09-23T17:54:55.229Z,11.48
2022-09-23T17:57:23.295Z,11.43
2022-09-23T17:59:53.728Z,11.25
2022-09-23T18:02:22.680Z,11.22
2022-09-23T18:04:51.263Z,11.20
2022-09-23T18:07:19.235Z,11.18
2022-09-23T18:09:47.818Z,11.12
2022-09-23T18:12:16.896Z,10.99
2022-09-23T18:14:45.460Z,10.91
2022-09-23T18:17:13.491Z,10.82
2022-09-23T18:19:42.556Z,10.71
2022-09-23T18:22:10.942Z,10.66
2022-09-23T18:24:41.131Z,10.59
2022-09-23T18:27:09.659Z,10.56
2022-09-23T18:29:37.808Z,10.45
2022-09-23T18:32:05.930Z,10.41
2022-09-23T18:34:34.486Z,10.35
2022-09-23T18:37:02.762Z,10.18
2022-09-23T18:39:30.747Z,10.30
2022-09-23T18:42:00.182Z,10.09
2022-09-23T18:44:28.396Z,10.10
2022-09-23T18:46:56.492Z,10.01
2022-09-23T18:49:43.715Z,10.07
2022-09-23T18:52:12.434Z,10.03
2022-09-23T18:54:40.829Z,9.89
2022-09-23T18:57:13.392Z,9.72
2022-09-23T18:59:44.342Z,9.65
2022-09-23T19:02:13.046Z,9.63
2022-09-23T19:04:41.444Z,9.49
2022-09-23T19:07:09.635Z,9.51
2022-09-23T19:09:37.899Z,9.43
2022-09-23T19:12:06.316Z,9.34
2022-09-23T19:14:34.447Z,9.35
2022-09-23T19:17:04.539Z,9.18
2022-09-23T19:19:33.083Z,9.25
2022-09-23T19:22:01.212Z,9.22
2022-09-23T19:24:29.247Z,9.01
2022-09-23T19:26:57.687Z,8.87
2022-09-23T19:29:26.305Z,8.93
2022-09-23T19:31:54.471Z,8.86
2022-09-23T19:34:29.128Z,8.74
2022-09-23T19:36:57.921Z,8.71
2022-09-23T19:39:28.512Z,8.63
2022-09-23T19:41:56.717Z,8.54
2022-09-23T19:44:28.065Z,8.62
2022-09-23T19:46:57.456Z,8.54
2022-09-23T19:49:26.259Z,8.58
2022-09-23T19:51:55.999Z,8.59
2022-09-23T19:54:27.112Z,8.73
2022-09-23T19:56:55.718Z,8.86
2022-09-23T19:59:26.315Z,8.84
2022-09-23T20:01:55.000Z,9.03
2022-09-23T20:04:23.825Z,9.13
2022-09-23T20:06:51.840Z,8.98
2022-09-23T20:09:20.248Z,8.88
2022-09-23T20:11:48.817Z,8.80
2022-09-23T20:14:17.300Z,8.89
2022-09-23T20:16:45.613Z,8.99
2022-09-23T20:19:14.203Z,9.12
2022-09-23T20:21:42.271Z,9.12
2022-09-23T20:24:12.060Z,9.04
2022-09-23T20:26:59.290Z,9.03
2022-09-23T20:29:27.400Z,8.91
2022-09-23T20:31:56.993Z,8.88
2022-09-23T20:34:25.079Z,8.88
2022-09-23T20:36:53.101Z,8.79
2022-09-23T20:39:21.822Z,8.84
2022-09-23T20:41:50.532Z,8.94
2022-09-23T20:44:18.955Z,8.68
2022-09-23T20:46:48.973Z,8.42
2022-09-23T20:49:17.824Z,8.45
2022-09-23T20:51:48.413Z,8.22
2022-09-23T20:54:20.940Z,8.17
2022-09-23T20:56:49.037Z,8.23
2022-09-23T20:59:18.014Z,8.15
2022-09-23T21:01:47.863Z,8.27
2022-09-23T21:04:16.159Z,8.49
2022-09-23T21:06:44.620Z,8.59
2022-09-23T21:09:12.881Z,8.62
2022-09-23T21:11:41.372Z,8.76
2022-09-23T21:14:10.169Z,8.69
2022-09-23T21:16:38.809Z,8.65
2022-09-23T21:19:08.111Z,8.71
2022-09-23T21:21:36.812Z,8.56
2022-09-23T21:24:33.040Z,8.50
2022-09-23T21:26:53.933Z,8.39
2022-09-23T21:29:22.074Z,8.31
2022-09-23T21:31:52.673Z,8.16
2022-09-23T21:34:21.272Z,8.24
2022-09-23T21:36:49.325Z,8.39
2022-09-23T21:39:17.468Z,8.37
2022-09-23T21:41:45.796Z,8.14
2022-09-23T21:44:13.913Z,8.23
2022-09-23T21:46:42.038Z,8.11
2022-09-23T21:49:10.481Z,8.13
2022-09-23T21:51:43.022Z,8.21
2022-09-23T21:54:14.366Z,8.21
2022-09-23T21:56:43.910Z,8.04
2022-09-23T21:59:12.960Z,7.94
2022-09-23T22:01:44.538Z,8.02
2022-09-23T22:04:16.025Z,8.10
2022-09-23T22:06:45.005Z,8.01
2022-09-23T22:09:19.467Z,8.06
2022-09-23T22:12:07.865Z,8.14
2022-09-23T22:14:37.002Z,8.08
2022-09-23T22:17:11.461Z,8.18
2022-09-23T22:19:46.741Z,8.02
2022-09-23T22:22:15.959Z,7.91
2022-09-23T22:24:48.259Z,7.98
2022-09-23T22:27:19.054Z,8.03
2022-09-23T22:30:06.868Z,7.92
2022-09-23T22:32:40.937Z,7.97
2022-09-23T22:35:12.203Z,7.83
2022-09-23T22:37:40.289Z,7.80
2022-09-23T22:40:11.401Z,7.81
2022-09-23T22:42:41.845Z,7.72
2022-09-23T22:45:11.540Z,7.73
2022-09-23T22:47:42.080Z,7.69
2022-09-23T22:50:10.511Z,7.66
2022-09-23T22:52:38.700Z,7.62
2022-09-23T22:55:08.268Z,7.66
2022-09-23T22:57:36.926Z,7.55
2022-09-23T23:00:07.854Z,7.71
2022-09-23T23:02:36.841Z,7.59
2022-09-23T23:05:05.348Z,7.56
2022-09-23T23:07:34.957Z,7.54
2022-09-23T23:10:04.706Z,7.54
2022-09-23T23:12:33.598Z,7.50
2022-09-23T23:15:01.889Z,7.36
2022-09-23T23:17:30.511Z,7.30
2022-09-23T23:19:58.535Z,7.14
2022-09-23T23:22:28.571Z,7.20
2022-09-23T23:24:57.194Z,7.08
2022-09-23T23:27:25.314Z,7.19
2022-09-23T23:29:54.064Z,7.22
2022-09-23T23:32:22.452Z,7.26
2022-09-23T23:34:50.700Z,7.32
2022-09-23T23:37:20.901Z,6.99
2022-09-23T23:39:49.630Z,7.14
2022-09-23T23:42:17.812Z,7.15
2022-09-23T23:44:45.913Z,7.22
2022-09-23T23:47:14.278Z,7.32
2022-09-23T23:49:45.511Z,7.34
2022-09-23T23:52:13.526Z,7.35
2022-09-23T23:54:41.947Z,7.13
2022-09-23T23:57:10.183Z,7.01
2022-09-23T23:59:38.826Z,7.06
